Time;durP1;ratioP1;P1;durP2;ratioP2;P2;SDS_P1;SDS_P2;PMS_P1;PMS_P2;Temp;Humidity;BMP_temperature;BMP_pressure;BME280_temperature;BME280_humidity;BME280_pressure;Samples;Min_cycle;Max_cycle;Signal;HPM_P1;HPM_P2
2023/06/27 00:00:53;;;;;;;4.22;3.60;;;28.60;99.90;;;;;;4936599;29;20028;-55
2023/06/27 00:03:19;;;;;;;5.57;3.60;;;28.60;99.90;;;;;;4935858;29;20036;-54
2023/06/27 00:05:46;;;;;;;4.20;3.58;;;28.50;99.90;;;;;;4935786;29;20436;-54
2023/06/27 00:08:12;;;;;;;5.23;3.70;;;28.60;99.90;;;;;;4935728;29;20032;-56
2023/06/27 00:10:38;;;;;;;5.30;3.45;;;28.60;99.90;;;;;;4935756;29;20074;-56
2023/06/27 00:13:04;;;;;;;6.53;3.92;;;28.50;99.90;;;;;;4936021;29;20039;-55
2023/06/27 00:15:34;;;;;;;6.22;3.97;;;28.50;99.90;;;;;;4935629;29;20028;-55
2023/06/27 00:17:59;;;;;;;5.72;4.22;;;28.50;99.90;;;;;;4934219;29;20036;-54
2023/06/27 00:20:25;;;;;;;7.97;4.30;;;28.50;99.90;;;;;;4935669;29;20384;-55
2023/06/27 00:22:51;;;;;;;4.05;3.60;;;28.50;99.90;;;;;;4935371;29;20035;-55
2023/06/27 00:25:19;;;;;;;6.38;4.28;;;28.50;99.90;;;;;;4935592;29;20102;-55
2023/06/27 00:27:45;;;;;;;6.85;3.83;;;28.50;99.90;;;;;;4935587;29;20384;-55
2023/06/27 00:30:11;;;;;;;8.25;3.88;;;28.50;99.90;;;;;;4935557;29;20020;-55
2023/06/27 00:32:36;;;;;;;5.55;4.05;;;28.40;99.90;;;;;;4935323;29;20103;-55
2023/06/27 00:35:02;;;;;;;4.70;4.00;;;28.40;99.90;;;;;;4935489;29;20479;-56
2023/06/27 00:37:28;;;;;;;6.07;4.10;;;28.40;99.90;;;;;;4935191;29;20035;-55
2023/06/27 00:39:54;;;;;;;6.22;4.00;;;28.40;99.90;;;;;;4935156;29;20024;-55
2023/06/27 00:42:20;;;;;;;4.95;3.90;;;28.40;99.90;;;;;;4935177;29;20028;-55
2023/06/27 00:44:46;;;;;;;6.50;4.10;;;28.40;99.90;;;;;;4935317;29;20102;-55
2023/06/27 00:47:12;;;;;;;6.50;3.75;;;28.40;99.90;;;;;;4935220;29;20476;-55
2023/06/27 00:49:38;;;;;;;5.80;4.20;;;28.40;99.90;;;;;;4935310;29;20532;-55
2023/06/27 00:52:05;;;;;;;6.07;4.53;;;28.40;99.90;;;;;;4935299;29;20055;-56
2023/06/27 00:54:31;;;;;;;5.60;4.20;;;28.40;99.90;;;;;;4935136;29;20039;-55
2023/06/27 00:56:57;;;;;;;7.38;3.40;;;28.40;99.90;;;;;;4935104;29;20128;-55
2023/06/27 00:59:23;;;;;;;5.78;3.67;;;28.40;99.90;;;;;;4935077;29;20066;-54
2023/06/27 01:01:49;;;;;;;6.68;4.05;;;28.40;99.90;;;;;;4959611;23;20056;-59
2023/06/27 01:04:15;;;;;;;5.03;3.80;;;28.40;99.90;;;;;;4952771;29;20046;-60
2023/06/27 01:06:56;;;;;;;4.95;3.80;;;28.40;99.90;;;;;;4954029;28;20369;-59
2023/06/27 01:09:46;;;;;;;7.57;3.90;;;28.30;99.90;;;;;;4953980;29;20027;-59
2023/06/27 01:12:27;;;;;;;6.63;4.95;;;28.30;99.90;;;;;;4954195;28;20102;-60
2023/06/27 01:14:56;;;;;;;6.97;4.32;;;28.30;99.90;;;;;;4954240;29;20083;-58
2023/06/27 01:17:23;;;;;;;9.95;4.35;;;28.30;99.90;;;;;;4954156;28;20024;-57
2023/06/27 01:19:52;;;;;;;7.30;4.47;;;28.30;99.90;;;;;;4954118;28;20031;-58
2023/06/27 01:22:29;;;;;;;5.95;3.80;;;28.30;99.90;;;;;;4953961;28;20035;-58
2023/06/27 01:24:57;;;;;;;8.55;4.13;;;28.30;99.90;;;;;;4953979;28;20365;-59
2023/06/27 01:27:23;;;;;;;6.13;4.53;;;28.30;99.90;;;;;;4952781;29;20039;-58
2023/06/27 01:29:48;;;;;;;6.38;4.13;;;28.30;99.90;;;;;;4952541;29;20077;-58
2023/06/27 01:32:26;;;;;;;5.50;4.15;;;28.20;99.90;;;;;;4954004;29;20042;-59
2023/06/27 01:35:04;;;;;;;10.10;5.43;;;28.20;99.90;;;;;;4953933;29;20024;-58
2023/06/27 01:37:41;;;;;;;6.72;4.68;;;28.20;99.90;;;;;;4952657;29;20118;-58
2023/06/27 01:40:14;;;;;;;;;;;28.20;99.90;;;;;;4954437;28;20019;-58
2023/06/27 01:42:41;;;;;;;5.07;3.92;;;28.20;99.90;;;;;;4952823;29;20021;-58
2023/06/27 01:45:09;;;;;;;7.10;4.75;;;28.20;99.90;;;;;;4954048;28;20031;-58
2023/06/27 01:47:43;;;;;;;4.80;3.90;;;28.10;99.90;;;;;;4954015;29;20051;-58
2023/06/27 01:50:13;;;;;;;4.82;4.28;;;28.10;99.90;;;;;;4954032;28;20209;-58
2023/06/27 01:52:39;;;;;;;6.18;4.70;;;28.10;99.90;;;;;;4956125;28;20038;-58
2023/06/27 01:55:05;;;;;;;6.20;4.78;;;28.10;99.90;;;;;;4957338;28;20023;-58
2023/06/27 01:57:31;;;;;;;5.00;3.97;;;28.10;99.90;;;;;;4957254;28;20035;-58
2023/06/27 01:59:57;;;;;;;5.88;4.28;;;28.10;99.90;;;;;;4957269;28;20086;-58
2023/06/27 02:02:23;;;;;;;6.03;4.53;;;28.10;99.90;;;;;;4969384;23;20055;-50
2023/06/27 02:04:48;;;;;;;6.80;4.45;;;28.10;99.90;;;;;;4957246;28;20487;-51
2023/06/27 02:07:14;;;;;;;6.28;4.07;;;28.10;99.90;;;;;;4957227;28;20410;-51
2023/06/27 02:09:40;;;;;;;6.32;4.07;;;28.10;99.90;;;;;;4954784;28;20027;-51
2023/06/27 02:12:09;;;;;;;5.30;4.47;;;28.10;99.90;;;;;;4954099;29;20495;-51
2023/06/27 02:14:35;;;;;;;5.90;4.65;;;28.10;99.90;;;;;;4955778;29;20098;-51
2023/06/27 02:17:00;;;;;;;6.07;4.50;;;28.10;99.90;;;;;;4955348;29;20027;-50
2023/06/27 02:19:26;;;;;;;6.70;4.28;;;28.10;99.90;;;;;;4956392;29;20535;-50
2023/06/27 02:21:52;;;;;;;6.00;4.40;;;28.10;99.90;;;;;;4956276;29;20522;-51
2023/06/27 02:24:18;;;;;;;5.30;4.10;;;28.10;99.90;;;;;;4956844;28;20027;-51
2023/06/27 02:26:44;;;;;;;8.43;4.43;;;28.10;99.90;;;;;;4955657;29;20066;-51
2023/06/27 02:29:11;;;;;;;5.07;4.10;;;28.10;99.90;;;;;;4956932;28;20134;-50
2023/06/27 02:31:37;;;;;;;7.53;4.38;;;28.10;99.90;;;;;;4957060;28;20110;-52
2023/06/27 02:34:03;;;;;;;6.30;4.57;;;28.10;99.90;;;;;;4956633;28;20063;-52
2023/06/27 02:36:29;;;;;;;5.60;4.55;;;28.10;99.90;;;;;;4956747;28;20031;-52
2023/06/27 02:38:55;;;;;;;6.10;4.13;;;28.10;99.90;;;;;;4956613;28;20479;-52
2023/06/27 02:41:24;;;;;;;7.38;4.60;;;28.10;99.90;;;;;;4955213;29;20023;-52
2023/06/27 02:43:50;;;;;;;5.57;4.38;;;28.10;99.90;;;;;;4956567;28;20035;-52
2023/06/27 02:46:16;;;;;;;5.18;4.18;;;28.10;99.90;;;;;;4956527;28;20019;-52
2023/06/27 02:48:42;;;;;;;6.03;4.07;;;28.10;99.90;;;;;;4956541;29;20158;-51
2023/06/27 02:51:08;;;;;;;5.60;4.32;;;28.00;99.90;;;;;;4956674;28;20477;-52
2023/06/27 02:53:34;;;;;;;5.95;4.05;;;28.10;99.90;;;;;;4956438;28;20103;-52
2023/06/27 02:56:03;;;;;;;5.15;3.92;;;28.00;99.90;;;;;;4955097;29;20027;-52
2023/06/27 02:58:32;;;;;;;5.60;4.20;;;28.00;99.90;;;;;;4956169;28;20028;-52
2023/06/27 03:01:06;;;;;;;7.97;4.50;;;28.00;99.90;;;;;;4968606;23;20054;-58
2023/06/27 03:03:32;;;;;;;7.43;4.60;;;28.00;99.90;;;;;;4956002;28;20497;-59
2023/06/27 03:06:02;;;;;;;6.15;4.43;;;28.00;99.90;;;;;;4954735;29;20023;-57
2023/06/27 03:08:31;;;;;;;8.38;4.53;;;28.00;99.90;;;;;;4955994;28;20024;-58
2023/06/27 03:10:57;;;;;;;4.63;4.00;;;28.00;99.90;;;;;;4956056;28;20031;-58
2023/06/27 03:13:24;;;;;;;6.32;4.13;;;28.00;99.90;;;;;;4956056;28;20484;-58
2023/06/27 03:15:50;;;;;;;8.97;4.80;;;28.00;99.90;;;;;;4955925;28;20148;-58
2023/06/27 03:18:16;;;;;;;6.95;4.80;;;27.90;99.90;;;;;;4955941;28;20045;-57
2023/06/27 03:20:41;;;;;;;5.53;4.45;;;27.90;99.90;;;;;;4955901;28;20059;-57
2023/06/27 03:23:07;;;;;;;6.45;4.43;;;27.90;99.90;;;;;;4955732;28;20476;-57
2023/06/27 03:25:33;;;;;;;5.32;4.03;;;27.90;99.90;;;;;;4954497;29;20031;-58
2023/06/27 03:27:59;;;;;;;6.78;5.00;;;27.90;99.90;;;;;;4955748;28;20031;-57
2023/06/27 03:30:25;;;;;;;6.07;4.43;;;27.90;99.90;;;;;;4955531;28;20048;-57
2023/06/27 03:32:50;;;;;;;7.68;4.65;;;27.90;99.90;;;;;;4955526;28;20147;-56
2023/06/27 03:35:16;;;;;;;5.22;4.70;;;27.80;99.90;;;;;;4955602;28;20030;-56
2023/06/27 03:37:42;;;;;;;6.70;4.53;;;27.80;99.90;;;;;;4955708;29;20038;-57
2023/06/27 03:40:08;;;;;;;7.05;5.15;;;27.80;99.90;;;;;;4954107;29;20031;-58
2023/06/27 03:42:34;;;;;;;7.53;4.47;;;27.80;99.90;;;;;;4955453;28;20404;-58
2023/06/27 03:44:59;;;;;;;6.57;5.10;;;27.80;99.90;;;;;;4954108;29;20023;-58
2023/06/27 03:47:25;;;;;;;6.47;5.07;;;27.80;99.90;;;;;;4955277;28;20041;-57
2023/06/27 03:49:51;;;;;;;6.57;4.90;;;27.80;99.90;;;;;;4955252;28;20024;-60
2023/06/27 03:52:17;;;;;;;7.72;5.35;;;27.80;99.90;;;;;;4955341;28;20099;-58
2023/06/27 03:54:43;;;;;;;11.32;5.07;;;27.80;99.90;;;;;;4955550;29;20024;-58
2023/06/27 03:57:08;;;;;;;7.13;4.72;;;27.80;99.90;;;;;;4955111;28;20048;-57
2023/06/27 03:59:34;;;;;;;6.55;5.13;;;27.80;99.90;;;;;;4955122;28;20041;-57
2023/06/27 04:02:00;;;;;;;8.70;5.70;;;27.80;99.90;;;;;;4955222;29;20126;-57
2023/06/27 04:04:26;;;;;;;9.30;5.80;;;27.80;99.90;;;;;;4955056;28;20107;-59
2023/06/27 04:06:52;;;;;;;13.70;6.38;;;27.80;99.90;;;;;;4955053;28;20026;-59
2023/06/27 04:09:17;;;;;;;6.53;4.65;;;27.80;99.90;;;;;;4953627;29;20027;-59
2023/06/27 04:11:43;;;;;;;7.50;5.10;;;27.80;99.90;;;;;;4955025;28;20033;-59
2023/06/27 04:14:09;;;;;;;8.02;5.40;;;27.80;99.90;;;;;;4954474;28;20066;-59
2023/06/27 04:16:35;;;;;;;8.40;5.35;;;27.80;99.90;;;;;;4954695;29;20042;-59
2023/06/27 04:19:00;;;;;;;10.00;5.35;;;27.80;99.90;;;;;;4954831;28;20034;-59
2023/06/27 04:21:26;;;;;;;8.80;5.32;;;27.80;99.90;;;;;;4954794;28;20090;-59
2023/06/27 04:23:54;;;;;;;7.82;5.05;;;27.90;99.90;;;;;;4954743;28;20118;-59
2023/06/27 04:26:20;;;;;;;7.82;5.43;;;27.80;99.90;;;;;;4954725;28;20038;-60
2023/06/27 04:28:47;;;;;;;7.95;5.55;;;27.90;99.90;;;;;;4954666;29;20152;-59
2023/06/27 04:31:13;;;;;;;10.68;6.10;;;27.80;99.90;;;;;;4954832;28;20353;-59
2023/06/27 04:33:41;;;;;;;15.65;6.28;;;27.80;99.90;;;;;;4954616;28;20142;-59
2023/06/27 04:36:08;;;;;;;10.48;6.88;;;27.80;99.90;;;;;;4954402;29;20435;-59
2023/06/27 04:38:40;;;;;;;9.95;6.70;;;27.80;99.90;;;;;;4954562;28;20392;-59
2023/06/27 04:41:06;;;;;;;10.95;6.40;;;27.80;99.90;;;;;;4954547;28;20038;-59
2023/06/27 04:43:32;;;;;;;9.25;5.75;;;27.70;99.90;;;;;;4954369;28;20035;-60
2023/06/27 04:46:01;;;;;;;8.15;5.40;;;27.70;99.90;;;;;;4954321;28;20030;-59
2023/06/27 04:48:28;;;;;;;7.95;5.15;;;27.70;99.90;;;;;;4954382;28;20361;-59
2023/06/27 04:50:54;;;;;;;11.13;5.83;;;27.70;99.90;;;;;;4948829;28;20102;-59
2023/06/27 04:53:24;;;;;;;12.98;6.43;;;27.70;99.90;;;;;;4952775;28;20416;-59
2023/06/27 04:55:51;;;;;;;7.95;6.00;;;27.70;99.90;;;;;;4952166;28;20472;-59
2023/06/27 04:58:18;;;;;;;7.63;5.80;;;27.60;99.90;;;;;;4954309;28;20414;-59
2023/06/27 05:00:44;;;;;;;7.28;5.15;;;27.60;99.90;;;;;;4949846;28;20488;-59
2023/06/27 05:03:14;;;;;;;11.40;6.05;;;27.60;99.90;;;;;;4933776;29;20408;-59
2023/06/27 05:05:41;;;;;;;9.88;5.15;;;27.60;99.90;;;;;;4935030;29;20020;-59
2023/06/27 05:08:07;;;;;;;11.70;5.55;;;27.60;99.90;;;;;;4935088;29;20036;-59
2023/06/27 05:10:33;;;;;;;7.28;5.75;;;27.60;99.90;;;;;;4934915;29;20099;-59
2023/06/27 05:13:00;;;;;;;9.45;5.28;;;27.50;99.90;;;;;;4935017;29;20028;-59
2023/06/27 05:15:26;;;;;;;11.30;5.88;;;27.50;99.90;;;;;;4934981;29;20027;-59
2023/06/27 05:18:01;;;;;;;9.90;6.43;;;27.50;99.90;;;;;;4934888;29;20031;-59
2023/06/27 05:20:28;;;;;;;12.63;7.32;;;27.50;99.90;;;;;;4934145;29;20020;-60
2023/06/27 05:22:54;;;;;;;9.05;5.93;;;27.50;99.90;;;;;;4934758;29;20395;-59
2023/06/27 05:25:20;;;;;;;8.60;6.15;;;27.50;99.90;;;;;;4935081;29;20102;-59
2023/06/27 05:27:45;;;;;;;12.00;6.20;;;27.50;99.90;;;;;;4937333;29;20132;-59
2023/06/27 05:30:12;;;;;;;13.50;6.60;;;27.50;99.90;;;;;;4938617;29;20062;-59
2023/06/27 05:32:37;;;;;;;7.50;5.40;;;27.50;99.90;;;;;;4937284;29;20428;-57
2023/06/27 05:35:03;;;;;;;12.18;5.75;;;27.60;99.90;;;;;;4938381;29;20028;-57
2023/06/27 05:37:29;;;;;;;12.38;5.95;;;27.60;99.90;;;;;;4938375;29;20032;-57
2023/06/27 05:39:55;;;;;;;12.10;6.47;;;27.60;99.90;;;;;;4938477;29;20071;-57
2023/06/27 05:42:21;;;;;;;11.15;6.38;;;27.60;99.90;;;;;;4938586;29;20052;-57
2023/06/27 05:44:46;;;;;;;16.02;7.97;;;27.60;99.90;;;;;;4938498;29;20034;-57
2023/06/27 05:47:13;;;;;;;10.77;7.05;;;27.60;99.90;;;;;;4938353;29;20028;-57
2023/06/27 05:49:39;;;;;;;9.75;6.25;;;27.60;99.90;;;;;;4938274;29;20380;-58
2023/06/27 05:52:05;;;;;;;13.52;6.78;;;27.60;99.90;;;;;;4938032;29;20035;-58
2023/06/27 05:54:30;;;;;;;11.07;6.20;;;27.60;99.90;;;;;;4938193;29;20031;-58
2023/06/27 05:56:56;;;;;;;10.75;6.55;;;27.60;99.90;;;;;;4936762;29;20027;-57
2023/06/27 05:59:22;;;;;;;10.38;6.38;;;27.70;99.90;;;;;;4938319;29;20114;-58
2023/06/27 06:01:48;;;;;;;19.92;6.80;;;27.70;99.90;;;;;;4938116;29;20119;-58
2023/06/27 06:04:13;;;;;;;13.90;6.57;;;27.70;99.90;;;;;;4937779;29;20043;-59
2023/06/27 06:06:39;;;;;;;27.20;7.50;;;27.70;99.90;;;;;;4938076;29;20028;-59
2023/06/27 06:09:05;;;;;;;17.83;8.80;;;27.70;99.90;;;;;;4937843;29;20023;-59
2023/06/27 06:11:34;;;;;;;25.88;7.47;;;27.70;99.90;;;;;;4937881;29;20079;-59
2023/06/27 06:14:01;;;;;;;15.35;7.65;;;27.80;99.90;;;;;;4937913;29;20032;-58
2023/06/27 06:16:27;;;;;;;10.20;6.38;;;27.80;99.90;;;;;;4937903;29;20028;-57
2023/06/27 06:18:53;;;;;;;19.38;6.57;;;27.80;99.90;;;;;;4937947;29;20024;-57
2023/06/27 06:21:20;;;;;;;18.95;7.45;;;27.90;99.90;;;;;;4937933;29;20401;-58
2023/06/27 06:23:45;;;;;;;19.25;7.40;;;27.90;99.90;;;;;;4937696;29;20094;-57
2023/06/27 06:26:11;;;;;;;21.10;7.75;;;27.90;99.90;;;;;;4936348;29;20111;-58
2023/06/27 06:28:38;;;;;;;26.08;7.55;;;27.90;99.90;;;;;;4937474;29;20032;-57
2023/06/27 06:31:04;;;;;;;18.33;6.72;;;28.00;99.90;;;;;;4937644;29;20109;-57
2023/06/27 06:33:30;;;;;;;20.85;6.88;;;28.00;99.90;;;;;;4936225;29;20393;-57
2023/06/27 06:35:56;;;;;;;24.23;6.75;;;28.00;99.90;;;;;;4937437;29;20027;-57
2023/06/27 06:38:22;;;;;;;16.50;6.35;;;28.10;99.90;;;;;;4937380;29;20452;-57
2023/06/27 06:40:47;;;;;;;15.98;6.40;;;28.10;99.90;;;;;;4937297;29;20036;-58
2023/06/27 06:43:13;;;;;;;17.55;6.45;;;28.10;99.90;;;;;;4935917;29;20036;-57
2023/06/27 06:45:39;;;;;;;15.02;6.32;;;28.20;99.90;;;;;;4937206;29;20027;-57
2023/06/27 06:48:05;;;;;;;12.45;6.65;;;28.20;99.90;;;;;;4937070;29;20038;-57
2023/06/27 06:50:32;;;;;;;13.88;6.10;;;28.30;99.90;;;;;;4937080;29;20111;-57
2023/06/27 06:52:58;;;;;;;20.10;6.90;;;28.30;99.90;;;;;;4937050;29;20107;-57
2023/06/27 06:55:23;;;;;;;17.00;6.38;;;28.30;99.90;;;;;;4937234;29;20524;-57
2023/06/27 06:57:49;;;;;;;9.65;6.03;;;28.30;99.90;;;;;;4936940;29;20111;-57
2023/06/27 07:00:17;;;;;;;14.80;6.18;;;28.40;99.90;;;;;;4936746;29;20023;-58
2023/06/27 07:02:43;;;;;;;14.10;6.55;;;28.40;99.90;;;;;;4936901;29;20036;-57
2023/06/27 07:05:10;;;;;;;13.65;6.28;;;28.50;99.90;;;;;;4936929;29;20024;-57
2023/06/27 07:07:36;;;;;;;14.70;6.60;;;28.50;99.90;;;;;;4936835;29;20446;-57
2023/06/27 07:10:02;;;;;;;11.77;6.15;;;28.50;99.90;;;;;;4936848;29;20102;-57
2023/06/27 07:12:27;;;;;;;11.57;6.43;;;28.60;99.90;;;;;;4936743;29;20028;-57
2023/06/27 07:14:53;;;;;;;12.60;6.25;;;28.60;99.90;;;;;;4936895;29;20038;-57
2023/06/27 07:17:19;;;;;;;16.33;6.47;;;28.60;99.90;;;;;;4936697;29;20032;-58
2023/06/27 07:19:45;;;;;;;11.15;6.15;;;28.60;99.90;;;;;;4936666;29;20023;-59
2023/06/27 07:22:11;;;;;;;15.10;5.63;;;28.60;99.90;;;;;;4952591;29;20031;-59
2023/06/27 07:24:36;;;;;;;9.35;6.18;;;28.60;99.90;;;;;;4955821;28;20471;-58
2023/06/27 07:27:02;;;;;;;12.48;6.20;;;28.60;99.90;;;;;;4955621;28;20027;-58
2023/06/27 07:29:28;;;;;;;12.15;5.93;;;28.70;99.90;;;;;;4954625;29;20026;-58
2023/06/27 07:31:54;;;;;;;12.52;6.50;;;28.70;99.90;;;;;;4955729;28;20432;-58
2023/06/27 07:34:19;;;;;;;11.68;5.82;;;28.80;99.90;;;;;;4954173;29;20106;-58
2023/06/27 07:36:47;;;;;;;10.20;5.97;;;28.70;99.90;;;;;;4955580;29;20043;-57
2023/06/27 07:39:13;;;;;;;10.35;6.10;;;28.80;99.90;;;;;;4955731;28;20419;-57
2023/06/27 07:41:39;;;;;;;13.40;6.45;;;28.80;99.90;;;;;;4952763;28;20464;-57
2023/06/27 07:44:05;;;;;;;8.25;6.15;;;28.80;99.90;;;;;;4954276;28;20043;-58
2023/06/27 07:46:31;;;;;;;9.27;6.22;;;28.80;99.90;;;;;;4954115;29;20023;-58
2023/06/27 07:48:59;;;;;;;6.82;5.32;;;28.80;99.90;;;;;;4953046;28;20034;-58
2023/06/27 07:51:26;;;;;;;9.75;6.13;;;28.80;99.90;;;;;;4955179;29;20024;-59
2023/06/27 07:53:52;;;;;;;13.27;6.20;;;28.90;99.90;;;;;;4955164;28;20023;-58
2023/06/27 07:56:19;;;;;;;7.72;5.40;;;28.90;99.90;;;;;;4955078;28;20090;-58
2023/06/27 07:58:45;;;;;;;9.68;5.63;;;28.90;99.90;;;;;;4954935;29;20055;-58
2023/06/27 08:01:11;;;;;;;8.23;6.00;;;28.90;99.90;;;;;;4954003;29;20122;-58
2023/06/27 08:03:37;;;;;;;7.45;5.88;;;29.00;99.90;;;;;;4955006;28;20051;-58
2023/06/27 08:06:04;;;;;;;9.43;6.57;;;29.00;99.90;;;;;;4955057;29;20023;-58
2023/06/27 08:08:30;;;;;;;9.20;5.25;;;29.00;99.90;;;;;;4954839;28;20038;-57
2023/06/27 08:10:57;;;;;;;9.48;4.97;;;29.00;99.90;;;;;;4954988;29;20138;-58
2023/06/27 08:13:24;;;;;;;8.40;5.90;;;29.00;99.90;;;;;;4954743;28;20110;-58
2023/06/27 08:15:50;;;;;;;11.57;6.05;;;29.00;99.90;;;;;;4954787;28;20440;-57
2023/06/27 08:18:16;;;;;;;11.52;6.00;;;29.00;99.90;;;;;;4953395;29;20130;-58
2023/06/27 08:20:41;;;;;;;8.18;4.70;;;29.00;99.90;;;;;;4954717;28;20082;-57
2023/06/27 08:23:07;;;;;;;9.82;5.70;;;29.10;99.90;;;;;;4954372;29;20388;-57
2023/06/27 08:25:33;;;;;;;7.55;5.38;;;29.10;99.90;;;;;;4954505;29;20019;-57
2023/06/27 08:27:59;;;;;;;8.80;5.47;;;29.10;99.90;;;;;;4954766;28;20031;-58
2023/06/27 08:30:27;;;;;;;11.02;5.60;;;29.10;99.90;;;;;;4953423;29;20030;-57
2023/06/27 08:32:54;;;;;;;8.60;5.30;;;29.10;99.90;;;;;;4954390;28;20020;-57
2023/06/27 08:35:21;;;;;;;9.57;5.50;;;29.10;99.90;;;;;;4954428;28;20094;-57
2023/06/27 08:37:47;;;;;;;7.60;5.40;;;29.10;99.90;;;;;;4954438;28;20544;-57
2023/06/27 08:40:23;;;;;;;8.55;5.32;;;29.10;99.90;;;;;;4953033;29;20134;-57
2023/06/27 08:42:48;;;;;;;6.32;5.53;;;29.20;99.90;;;;;;4954205;28;20127;-57
2023/06/27 08:45:14;;;;;;;7.10;4.97;;;29.20;99.90;;;;;;4954190;28;20438;-57
2023/06/27 08:47:43;;;;;;;6.90;5.32;;;29.20;99.90;;;;;;4954301;29;20027;-57
2023/06/27 08:50:12;;;;;;;8.30;6.00;;;29.20;99.90;;;;;;4954120;28;20101;-57
2023/06/27 08:52:44;;;;;;;7.57;5.32;;;29.20;99.90;;;;;;4954085;28;20537;-57
2023/06/27 08:55:26;;;;;;;7.70;5.40;;;29.20;99.90;;;;;;4954116;28;20066;-58
2023/06/27 08:57:54;;;;;;;10.27;5.93;;;29.20;99.90;;;;;;4954099;28;20027;-57
2023/06/27 09:00:24;;;;;;;9.38;5.57;;;29.20;99.90;;;;;;4952569;29;20082;-57
2023/06/27 09:02:51;;;;;;;8.40;5.45;;;29.20;99.90;;;;;;4953908;28;20036;-58
2023/06/27 09:05:17;;;;;;;6.38;5.07;;;29.20;99.90;;;;;;4954031;28;20455;-58
2023/06/27 09:07:44;;;;;;;8.43;5.82;;;29.30;99.90;;;;;;4954097;28;20023;-58
2023/06/27 09:10:10;;;;;;;8.25;5.72;;;29.30;99.90;;;;;;4954120;28;20070;-57
2023/06/27 09:12:37;;;;;;;10.73;5.00;;;29.30;99.90;;;;;;4952795;29;20415;-56
2023/06/27 09:15:04;;;;;;;7.38;6.03;;;29.30;99.90;;;;;;4954044;28;20022;-58
2023/06/27 09:17:30;;;;;;;7.75;5.53;;;29.30;99.90;;;;;;4953044;29;20031;-57
2023/06/27 09:19:56;;;;;;;12.73;6.55;;;29.30;99.90;;;;;;4952622;29;20019;-58
2023/06/27 09:22:23;;;;;;;8.48;5.63;;;29.40;99.90;;;;;;4953763;29;20114;-58
2023/06/27 09:24:49;;;;;;;;;;;29.30;99.90;;;;;;4954281;28;20027;-57
2023/06/27 09:27:31;;;;;;;9.05;6.60;;;29.40;99.90;;;;;;4953790;28;20350;-58
2023/06/27 09:30:04;;;;;;;6.93;5.50;;;29.40;99.90;;;;;;4953906;28;20395;-59
2023/06/27 09:32:30;;;;;;;9.82;5.85;;;29.40;99.90;;;;;;4954110;28;20027;-59
2023/06/27 09:34:59;;;;;;;10.55;6.30;;;29.40;99.90;;;;;;4953723;28;20034;-58
2023/06/27 09:37:30;;;;;;;9.30;6.85;;;29.40;99.90;;;;;;4953774;28;20055;-58
2023/06/27 09:39:56;;;;;;;8.65;5.80;;;29.50;99.90;;;;;;4953694;28;20104;-58
2023/06/27 09:42:21;;;;;;;9.80;6.55;;;29.50;99.90;;;;;;4953735;29;20035;-58
2023/06/27 09:44:47;;;;;;;8.45;7.38;;;29.50;99.90;;;;;;4953727;28;20027;-59
2023/06/27 09:47:13;;;;;;;9.98;6.93;;;29.50;99.90;;;;;;4953532;28;20071;-59
2023/06/27 09:49:43;;;;;;;8.93;6.88;;;29.50;99.90;;;;;;4953672;28;20027;-59
2023/06/27 09:52:13;;;;;;;9.63;7.13;;;29.50;99.90;;;;;;4953482;28;20070;-59
2023/06/27 09:54:46;;;;;;;8.48;6.10;;;29.60;99.90;;;;;;4952373;29;20023;-58
2023/06/27 09:57:21;;;;;;;9.90;7.07;;;29.60;99.90;;;;;;4953533;28;20027;-59
2023/06/27 09:59:46;;;;;;;7.47;6.03;;;29.60;99.90;;;;;;4953547;28;20051;-60
2023/06/27 10:02:14;;;;;;;8.57;6.15;;;29.70;99.90;;;;;;4953228;29;20086;-60
2023/06/27 10:04:40;;;;;;;10.13;6.55;;;29.80;99.90;;;;;;4953583;28;20114;-60
2023/06/27 10:07:09;;;;;;;7.35;5.85;;;29.80;99.90;;;;;;4953523;28;20027;-59
2023/06/27 10:09:37;;;;;;;8.43;6.75;;;29.90;99.90;;;;;;4953640;28;20369;-59
2023/06/27 10:12:05;;;;;;;10.25;6.13;;;29.90;99.90;;;;;;4953594;28;20023;-59
2023/06/27 10:14:32;;;;;;;8.43;6.10;;;30.00;99.90;;;;;;4956857;28;20079;-59
2023/06/27 10:16:58;;;;;;;6.95;5.45;;;30.10;99.90;;;;;;4956900;28;20069;-59
2023/06/27 10:19:25;;;;;;;8.95;5.75;;;30.00;99.90;;;;;;4956742;28;20034;-60
2023/06/27 10:21:51;;;;;;;10.50;5.77;;;30.10;99.90;;;;;;4953755;29;20028;-59
2023/06/27 10:24:17;;;;;;;9.35;5.93;;;30.10;99.90;;;;;;4954971;28;20027;-59
2023/06/27 10:26:51;;;;;;;6.67;5.53;;;30.10;99.90;;;;;;4955404;28;20023;-58
2023/06/27 10:29:17;;;;;;;8.48;5.85;;;30.10;99.90;;;;;;4955081;28;20035;-59
2023/06/27 10:31:49;;;;;;;8.95;5.68;;;30.10;99.90;;;;;;4956602;29;20027;-59
2023/06/27 10:34:24;;;;;;;8.40;5.75;;;30.10;99.90;;;;;;4956411;28;20081;-59
2023/06/27 10:37:00;;;;;;;8.10;5.45;;;30.20;99.90;;;;;;4956505;28;20027;-59
2023/06/27 10:39:27;;;;;;;11.82;6.05;;;30.20;99.90;;;;;;4956397;28;20027;-59
2023/06/27 10:42:26;;;;;;;7.35;5.95;;;30.20;99.90;;;;;;4956311;29;20106;-59
2023/06/27 10:45:08;;;;;;;7.38;5.45;;;30.20;99.90;;;;;;4955064;29;20400;-59
2023/06/27 10:47:41;;;;;;;7.13;5.10;;;30.30;99.90;;;;;;4956053;28;20532;-59
2023/06/27 10:50:22;;;;;;;10.40;6.20;;;30.40;99.90;;;;;;4956419;28;20425;-60
2023/06/27 10:53:01;;;;;;;6.85;5.07;;;30.50;99.90;;;;;;4956261;28;20042;-60
2023/06/27 10:55:29;;;;;;;9.07;6.07;;;30.60;99.90;;;;;;4956191;28;20023;-60
2023/06/27 10:58:03;;;;;;;8.18;6.70;;;30.60;99.90;;;;;;4956203;28;20035;-60
2023/06/27 11:00:32;;;;;;;5.78;4.90;;;30.70;99.90;;;;;;4956273;28;20026;-59
2023/06/27 11:03:02;;;;;;;8.52;5.03;;;30.80;99.90;;;;;;4954773;29;20519;-60
2023/06/27 11:05:54;;;;;;;5.72;5.05;;;30.80;99.90;;;;;;4956068;28;20457;-60
2023/06/27 11:08:21;;;;;;;7.43;4.82;;;30.80;99.90;;;;;;4956016;28;20035;-60
2023/06/27 11:10:50;;;;;;;;;;;30.90;99.90;;;;;;4956336;28;20379;-60
2023/06/27 11:13:21;;;;;;;6.80;4.50;;;30.90;99.90;;;;;;4955856;29;19983;-60
2023/06/27 11:15:48;;;;;;;7.40;5.57;;;31.00;99.90;;;;;;4955824;28;20027;-60
2023/06/27 11:18:15;;;;;;;7.50;4.60;;;31.10;99.90;;;;;;4955824;28;20034;-60
2023/06/27 11:20:42;;;;;;;7.53;4.72;;;31.10;99.90;;;;;;4955778;28;20035;-60
2023/06/27 11:23:08;;;;;;;;;;;31.10;99.90;;;;;;4954918;29;20443;-60
2023/06/27 11:25:45;;;;;;;7.23;4.03;;;31.10;99.90;;;;;;4954878;28;20005;-59
2023/06/27 11:28:19;;;;;;;5.67;4.50;;;31.20;99.90;;;;;;4954353;29;20023;-59
2023/06/27 11:30:45;;;;;;;7.43;4.25;;;31.20;99.90;;;;;;4955612;28;20285;-59
2023/06/27 11:33:13;;;;;;;6.30;4.68;;;31.30;99.90;;;;;;4955586;28;20034;-59
2023/06/27 11:35:42;;;;;;;5.07;4.45;;;31.30;99.90;;;;;;4955568;29;20030;-60
2023/06/27 11:38:09;;;;;;;5.72;4.82;;;31.30;99.90;;;;;;4955694;29;20032;-59
2023/06/27 11:40:35;;;;;;;9.45;4.25;;;31.40;99.90;;;;;;4955478;28;20047;-59
2023/06/27 11:43:06;;;;;;;6.22;4.45;;;31.40;99.90;;;;;;4955187;28;20094;-59
2023/06/27 11:45:33;;;;;;;6.32;4.45;;;31.40;99.90;;;;;;4955190;28;20037;-59
2023/06/27 11:48:00;;;;;;;6.22;4.55;;;31.50;99.90;;;;;;4955272;28;20026;-58
2023/06/27 11:50:27;;;;;;;6.10;4.22;;;31.50;99.90;;;;;;4955359;28;20027;-59
2023/06/27 11:52:56;;;;;;;5.55;4.00;;;31.50;99.90;;;;;;4955300;28;20028;-60
2023/06/27 11:55:22;;;;;;;9.02;4.80;;;31.50;99.90;;;;;;4955015;28;20028;-61
2023/06/27 11:57:54;;;;;;;7.60;5.22;;;31.50;99.90;;;;;;4955038;28;20432;-60
2023/06/27 12:00:28;;;;;;;6.53;4.35;;;31.50;99.90;;;;;;4954851;28;20027;-59
2023/06/27 12:02:56;;;;;;;7.40;5.10;;;31.50;99.90;;;;;;4954681;28;20480;-60
2023/06/27 12:05:24;;;;;;;8.90;5.10;;;31.50;99.90;;;;;;4954947;28;20106;-59
2023/06/27 12:07:55;;;;;;;;;;;31.50;99.90;;;;;;4955121;28;20051;-59
2023/06/27 12:10:22;;;;;;;6.60;4.90;;;31.60;99.90;;;;;;4954641;28;19956;-60
2023/06/27 12:12:49;;;;;;;10.80;5.35;;;31.50;99.90;;;;;;4954817;28;20042;-59
2023/06/27 12:15:16;;;;;;;5.68;4.45;;;31.60;99.90;;;;;;4954801;28;20476;-60
2023/06/27 12:18:01;;;;;;;9.80;4.82;;;31.60;99.90;;;;;;4954963;28;20035;-59
2023/06/27 12:20:43;;;;;;;7.63;4.72;;;31.50;99.90;;;;;;4954730;28;20498;-59
2023/06/27 12:23:10;;;;;;;5.28;4.32;;;31.60;99.90;;;;;;4954750;28;20530;-59
2023/06/27 12:25:40;;;;;;;6.78;4.55;;;31.50;99.90;;;;;;4954584;28;20495;-59
2023/06/27 12:28:06;;;;;;;6.63;4.80;;;31.50;99.90;;;;;;4954611;28;20041;-59
2023/06/27 12:30:32;;;;;;;6.53;4.82;;;31.40;99.90;;;;;;4954630;28;20127;-59
2023/06/27 12:32:58;;;;;;;5.78;4.18;;;31.40;99.90;;;;;;4954581;28;20027;-59
2023/06/27 12:35:24;;;;;;;6.28;4.15;;;31.30;99.90;;;;;;4954008;28;20473;-59
2023/06/27 12:37:50;;;;;;;7.70;4.20;;;31.30;99.90;;;;;;4954434;28;20025;-59
2023/06/27 12:40:17;;;;;;;4.95;3.90;;;31.20;99.90;;;;;;4954179;29;20443;-59
2023/06/27 12:42:43;;;;;;;6.07;4.35;;;31.20;99.90;;;;;;4954188;28;20059;-59
2023/06/27 12:45:11;;;;;;;7.78;4.53;;;31.10;99.90;;;;;;4953127;29;20034;-60
2023/06/27 12:47:41;;;;;;;;;;;31.10;99.90;;;;;;4954476;28;20078;-59